sensor_id;sensor_type;location;lat;lon;timestamp;P1;durP1;ratioP1;P2;durP2;ratioP2
12181;SDS011;6154;51.550;12.138;2022-07-29T00:01:41;3.87;;;0.77;;
12181;SDS011;6154;51.550;12.138;2022-07-29T00:04:09;1.15;;;0.80;;
12181;SDS011;6154;51.550;12.138;2022-07-29T00:06:40;1.27;;;0.77;;
12181;SDS011;6154;51.550;12.138;2022-07-29T00:09:08;2.40;;;0.90;;
12181;SDS011;6154;51.550;12.138;2022-07-29T00:11:37;1.20;;;0.70;;
12181;SDS011;6154;51.550;12.138;2022-07-29T00:14:05;7.18;;;0.80;;
12181;SDS011;6154;51.550;12.138;2022-07-29T00:16:33;2.37;;;0.80;;
12181;SDS011;6154;51.550;12.138;2022-07-29T00:19:02;1.25;;;0.90;;
12181;SDS011;6154;51.550;12.138;2022-07-29T00:21:33;0.70;;;0.60;;
12181;SDS011;6154;51.550;12.138;2022-07-29T00:24:02;0.82;;;0.70;;
12181;SDS011;6154;51.550;12.138;2022-07-29T00:26:31;1.62;;;0.80;;
12181;SDS011;6154;51.550;12.138;2022-07-29T00:28:59;3.58;;;0.88;;
12181;SDS011;6154;51.550;12.138;2022-07-29T00:31:47;1.73;;;1.10;;
12181;SDS011;6154;51.550;12.138;2022-07-29T00:34:15;0.90;;;0.65;;
12181;SDS011;6154;51.550;12.138;2022-07-29T00:37:01;1.85;;;0.77;;
12181;SDS011;6154;51.550;12.138;2022-07-29T00:39:30;4.82;;;1.05;;
12181;SDS011;6154;51.550;12.138;2022-07-29T00:41:58;1.87;;;0.77;;
12181;SDS011;6154;51.550;12.138;2022-07-29T00:44:26;3.12;;;0.62;;
12181;SDS011;6154;51.550;12.138;2022-07-29T00:46:54;1.48;;;0.50;;
12181;SDS011;6154;51.550;12.138;2022-07-29T00:49:22;2.22;;;1.17;;
12181;SDS011;6154;51.550;12.138;2022-07-29T00:51:50;0.60;;;0.60;;
12181;SDS011;6154;51.550;12.138;2022-07-29T00:54:18;1.12;;;1.00;;
12181;SDS011;6154;51.550;12.138;2022-07-29T00:56:48;2.55;;;0.75;;
12181;SDS011;6154;51.550;12.138;2022-07-29T00:59:17;1.67;;;0.80;;
12181;SDS011;6154;51.550;12.138;2022-07-29T01:01:45;1.17;;;0.80;;
12181;SDS011;6154;51.550;12.138;2022-07-29T01:04:13;2.25;;;0.95;;
12181;SDS011;6154;51.550;12.138;2022-07-29T01:06:42;2.62;;;0.73;;
12181;SDS011;6154;51.550;12.138;2022-07-29T01:09:10;2.15;;;1.10;;
12181;SDS011;6154;51.550;12.138;2022-07-29T01:11:40;1.77;;;0.80;;
12181;SDS011;6154;51.550;12.138;2022-07-29T01:14:10;1.73;;;0.80;;
12181;SDS011;6154;51.550;12.138;2022-07-29T01:16:41;3.72;;;1.00;;
12181;SDS011;6154;51.550;12.138;2022-07-29T01:19:29;2.30;;;0.82;;
12181;SDS011;6154;51.550;12.138;2022-07-29T01:22:14;2.75;;;1.05;;
12181;SDS011;6154;51.550;12.138;2022-07-29T01:25:03;0.60;;;0.60;;
12181;SDS011;6154;51.550;12.138;2022-07-29T01:27:39;4.82;;;1.00;;
12181;SDS011;6154;51.550;12.138;2022-07-29T01:30:14;3.87;;;1.10;;
12181;SDS011;6154;51.550;12.138;2022-07-29T01:32:42;4.03;;;0.90;;
12181;SDS011;6154;51.550;12.138;2022-07-29T01:35:19;2.42;;;1.00;;
12181;SDS011;6154;51.550;12.138;2022-07-29T01:37:52;1.92;;;0.77;;
12181;SDS011;6154;51.550;12.138;2022-07-29T01:40:27;1.65;;;1.23;;
12181;SDS011;6154;51.550;12.138;2022-07-29T01:43:00;2.83;;;0.95;;
12181;SDS011;6154;51.550;12.138;2022-07-29T01:45:38;0.77;;;0.75;;
12181;SDS011;6154;51.550;12.138;2022-07-29T01:48:10;4.85;;;1.10;;
12181;SDS011;6154;51.550;12.138;2022-07-29T01:50:44;1.15;;;0.60;;
12181;SDS011;6154;51.550;12.138;2022-07-29T01:53:18;1.25;;;0.70;;
12181;SDS011;6154;51.550;12.138;2022-07-29T01:55:51;1.10;;;0.70;;
12181;SDS011;6154;51.550;12.138;2022-07-29T01:58:24;1.05;;;0.70;;
12181;SDS011;6154;51.550;12.138;2022-07-29T02:00:56;6.03;;;1.02;;
12181;SDS011;6154;51.550;12.138;2022-07-29T02:03:26;1.45;;;1.08;;
12181;SDS011;6154;51.550;12.138;2022-07-29T02:05:56;3.20;;;0.95;;
12181;SDS011;6154;51.550;12.138;2022-07-29T02:08:26;3.80;;;1.00;;
12181;SDS011;6154;51.550;12.138;2022-07-29T02:10:55;3.15;;;0.90;;
12181;SDS011;6154;51.550;12.138;2022-07-29T02:13:25;2.67;;;0.85;;
12181;SDS011;6154;51.550;12.138;2022-07-29T02:15:58;1.17;;;0.75;;
12181;SDS011;6154;51.550;12.138;2022-07-29T02:18:28;1.52;;;0.93;;
12181;SDS011;6154;51.550;12.138;2022-07-29T02:20:58;1.02;;;0.93;;
12181;SDS011;6154;51.550;12.138;2022-07-29T02:23:28;4.07;;;1.20;;
12181;SDS011;6154;51.550;12.138;2022-07-29T02:26:17;0.80;;;0.60;;
12181;SDS011;6154;51.550;12.138;2022-07-29T02:28:45;2.80;;;1.00;;
12181;SDS011;6154;51.550;12.138;2022-07-29T02:31:16;1.45;;;0.90;;
12181;SDS011;6154;51.550;12.138;2022-07-29T02:33:47;3.62;;;0.73;;
12181;SDS011;6154;51.550;12.138;2022-07-29T02:36:16;3.72;;;0.90;;
12181;SDS011;6154;51.550;12.138;2022-07-29T02:38:48;1.20;;;1.00;;
12181;SDS011;6154;51.550;12.138;2022-07-29T02:41:18;1.37;;;0.77;;
12181;SDS011;6154;51.550;12.138;2022-07-29T02:43:53;0.88;;;0.88;;
12181;SDS011;6154;51.550;12.138;2022-07-29T02:46:27;0.82;;;0.77;;
12181;SDS011;6154;51.550;12.138;2022-07-29T02:49:00;2.70;;;1.17;;
12181;SDS011;6154;51.550;12.138;2022-07-29T02:51:39;1.98;;;0.85;;
12181;SDS011;6154;51.550;12.138;2022-07-29T02:54:11;3.75;;;0.77;;
12181;SDS011;6154;51.550;12.138;2022-07-29T02:56:47;4.53;;;1.00;;
12181;SDS011;6154;51.550;12.138;2022-07-29T02:59:20;2.47;;;1.08;;
12181;SDS011;6154;51.550;12.138;2022-07-29T03:01:53;2.80;;;1.23;;
12181;SDS011;6154;51.550;12.138;2022-07-29T03:04:24;1.08;;;0.82;;
12181;SDS011;6154;51.550;12.138;2022-07-29T03:06:55;3.25;;;1.20;;
12181;SDS011;6154;51.550;12.138;2022-07-29T03:09:27;1.55;;;1.30;;
12181;SDS011;6154;51.550;12.138;2022-07-29T03:11:57;3.53;;;0.90;;
12181;SDS011;6154;51.550;12.138;2022-07-29T03:14:26;3.65;;;1.05;;
12181;SDS011;6154;51.550;12.138;2022-07-29T03:16:56;1.70;;;0.80;;
12181;SDS011;6154;51.550;12.138;2022-07-29T03:19:25;1.70;;;0.90;;
12181;SDS011;6154;51.550;12.138;2022-07-29T03:21:55;2.58;;;1.00;;
12181;SDS011;6154;51.550;12.138;2022-07-29T03:24:28;5.03;;;1.10;;
12181;SDS011;6154;51.550;12.138;2022-07-29T03:26:58;2.30;;;0.95;;
12181;SDS011;6154;51.550;12.138;2022-07-29T03:29:27;3.05;;;1.42;;
12181;SDS011;6154;51.550;12.138;2022-07-29T03:32:01;1.95;;;0.70;;
12181;SDS011;6154;51.550;12.138;2022-07-29T03:34:35;2.15;;;1.15;;
12181;SDS011;6154;51.550;12.138;2022-07-29T03:37:04;1.75;;;0.80;;
12181;SDS011;6154;51.550;12.138;2022-07-29T03:39:35;1.65;;;0.85;;
12181;SDS011;6154;51.550;12.138;2022-07-29T03:42:08;0.70;;;0.68;;
12181;SDS011;6154;51.550;12.138;2022-07-29T03:44:41;0.80;;;0.80;;
12181;SDS011;6154;51.550;12.138;2022-07-29T03:47:13;1.20;;;0.93;;
12181;SDS011;6154;51.550;12.138;2022-07-29T03:49:44;3.15;;;0.85;;
12181;SDS011;6154;51.550;12.138;2022-07-29T03:52:16;2.03;;;0.98;;
12181;SDS011;6154;51.550;12.138;2022-07-29T03:54:44;1.60;;;0.88;;
12181;SDS011;6154;51.550;12.138;2022-07-29T03:57:12;2.12;;;0.73;;
12181;SDS011;6154;51.550;12.138;2022-07-29T03:59:43;1.33;;;1.08;;
12181;SDS011;6154;51.550;12.138;2022-07-29T04:02:14;2.28;;;1.20;;
12181;SDS011;6154;51.550;12.138;2022-07-29T04:04:48;1.08;;;0.93;;
12181;SDS011;6154;51.550;12.138;2022-07-29T04:07:16;0.80;;;0.80;;
12181;SDS011;6154;51.550;12.138;2022-07-29T04:09:44;2.58;;;1.37;;
12181;SDS011;6154;51.550;12.138;2022-07-29T04:12:12;3.30;;;1.00;;
12181;SDS011;6154;51.550;12.138;2022-07-29T04:14:41;14.48;;;1.85;;
12181;SDS011;6154;51.550;12.138;2022-07-29T04:17:08;23.10;;;3.22;;
12181;SDS011;6154;51.550;12.138;2022-07-29T04:19:38;29.65;;;3.08;;
12181;SDS011;6154;51.550;12.138;2022-07-29T04:22:06;17.55;;;1.92;;
12181;SDS011;6154;51.550;12.138;2022-07-29T04:24:34;13.90;;;2.80;;
12181;SDS011;6154;51.550;12.138;2022-07-29T04:27:02;11.02;;;1.67;;
12181;SDS011;6154;51.550;12.138;2022-07-29T04:29:30;5.00;;;1.08;;
12181;SDS011;6154;51.550;12.138;2022-07-29T04:31:58;3.10;;;1.40;;
12181;SDS011;6154;51.550;12.138;2022-07-29T04:34:26;3.03;;;1.10;;
12181;SDS011;6154;51.550;12.138;2022-07-29T04:36:56;2.22;;;1.25;;
12181;SDS011;6154;51.550;12.138;2022-07-29T04:39:24;5.60;;;1.10;;
12181;SDS011;6154;51.550;12.138;2022-07-29T04:41:56;1.15;;;0.80;;
12181;SDS011;6154;51.550;12.138;2022-07-29T04:44:24;1.05;;;0.88;;
12181;SDS011;6154;51.550;12.138;2022-07-29T04:46:55;2.47;;;1.30;;
12181;SDS011;6154;51.550;12.138;2022-07-29T04:49:24;3.95;;;1.20;;
12181;SDS011;6154;51.550;12.138;2022-07-29T04:51:53;2.45;;;1.20;;
12181;SDS011;6154;51.550;12.138;2022-07-29T04:54:22;1.05;;;0.93;;
12181;SDS011;6154;51.550;12.138;2022-07-29T04:56:52;2.25;;;1.00;;
12181;SDS011;6154;51.550;12.138;2022-07-29T04:59:20;2.10;;;0.90;;
12181;SDS011;6154;51.550;12.138;2022-07-29T05:01:48;4.40;;;1.17;;
12181;SDS011;6154;51.550;12.138;2022-07-29T05:04:16;2.22;;;1.20;;
12181;SDS011;6154;51.550;12.138;2022-07-29T05:06:45;3.08;;;0.93;;
12181;SDS011;6154;51.550;12.138;2022-07-29T05:09:13;3.30;;;1.12;;
12181;SDS011;6154;51.550;12.138;2022-07-29T05:11:43;2.37;;;0.98;;
12181;SDS011;6154;51.550;12.138;2022-07-29T05:14:12;2.70;;;1.37;;
12181;SDS011;6154;51.550;12.138;2022-07-29T05:16:41;4.85;;;1.15;;
12181;SDS011;6154;51.550;12.138;2022-07-29T05:19:10;2.62;;;1.15;;
12181;SDS011;6154;51.550;12.138;2022-07-29T05:21:40;1.73;;;1.00;;
12181;SDS011;6154;51.550;12.138;2022-07-29T05:24:08;0.77;;;0.68;;
12181;SDS011;6154;51.550;12.138;2022-07-29T05:26:36;2.42;;;1.20;;
12181;SDS011;6154;51.550;12.138;2022-07-29T05:29:06;2.05;;;1.10;;
12181;SDS011;6154;51.550;12.138;2022-07-29T05:31:54;2.35;;;0.88;;
12181;SDS011;6154;51.550;12.138;2022-07-29T05:34:22;2.05;;;1.00;;
12181;SDS011;6154;51.550;12.138;2022-07-29T05:36:51;6.03;;;0.77;;
12181;SDS011;6154;51.550;12.138;2022-07-29T05:39:20;2.50;;;0.90;;
12181;SDS011;6154;51.550;12.138;2022-07-29T05:42:08;2.55;;;0.90;;
12181;SDS011;6154;51.550;12.138;2022-07-29T05:44:38;2.12;;;0.80;;
12181;SDS011;6154;51.550;12.138;2022-07-29T05:47:06;1.52;;;0.95;;
12181;SDS011;6154;51.550;12.138;2022-07-29T05:49:33;2.58;;;0.90;;
12181;SDS011;6154;51.550;12.138;2022-07-29T05:52:02;3.37;;;1.00;;
12181;SDS011;6154;51.550;12.138;2022-07-29T05:54:30;2.75;;;0.90;;
12181;SDS011;6154;51.550;12.138;2022-07-29T05:56:58;2.08;;;0.95;;
12181;SDS011;6154;51.550;12.138;2022-07-29T05:59:26;1.17;;;0.80;;
12181;SDS011;6154;51.550;12.138;2022-07-29T06:01:57;2.87;;;0.90;;
12181;SDS011;6154;51.550;12.138;2022-07-29T06:04:25;1.87;;;1.20;;
12181;SDS011;6154;51.550;12.138;2022-07-29T06:06:54;1.92;;;1.00;;
12181;SDS011;6154;51.550;12.138;2022-07-29T06:09:22;3.90;;;0.90;;
12181;SDS011;6154;51.550;12.138;2022-07-29T06:11:50;1.20;;;0.90;;
12181;SDS011;6154;51.550;12.138;2022-07-29T06:14:19;5.72;;;1.30;;
12181;SDS011;6154;51.550;12.138;2022-07-29T06:16:47;3.12;;;1.12;;
12181;SDS011;6154;51.550;12.138;2022-07-29T06:19:16;0.77;;;0.75;;
12181;SDS011;6154;51.550;12.138;2022-07-29T06:21:44;1.40;;;0.82;;
12181;SDS011;6154;51.550;12.138;2022-07-29T06:24:13;1.17;;;1.00;;
12181;SDS011;6154;51.550;12.138;2022-07-29T06:26:43;5.30;;;1.12;;
12181;SDS011;6154;51.550;12.138;2022-07-29T06:29:11;1.17;;;0.75;;
12181;SDS011;6154;51.550;12.138;2022-07-29T06:31:39;2.70;;;1.27;;
12181;SDS011;6154;51.550;12.138;2022-07-29T06:34:07;5.75;;;0.98;;
12181;SDS011;6154;51.550;12.138;2022-07-29T06:36:37;4.80;;;1.20;;
12181;SDS011;6154;51.550;12.138;2022-07-29T06:39:06;2.42;;;0.88;;
12181;SDS011;6154;51.550;12.138;2022-07-29T06:41:38;2.08;;;1.05;;
12181;SDS011;6154;51.550;12.138;2022-07-29T06:44:07;1.98;;;0.90;;
12181;SDS011;6154;51.550;12.138;2022-07-29T06:46:36;4.62;;;0.75;;
12181;SDS011;6154;51.550;12.138;2022-07-29T06:49:04;1.25;;;0.98;;
12181;SDS011;6154;51.550;12.138;2022-07-29T06:51:32;2.35;;;0.80;;
12181;SDS011;6154;51.550;12.138;2022-07-29T06:54:02;1.60;;;0.70;;
12181;SDS011;6154;51.550;12.138;2022-07-29T06:56:32;3.70;;;1.30;;
12181;SDS011;6154;51.550;12.138;2022-07-29T06:59:06;1.12;;;0.93;;
12181;SDS011;6154;51.550;12.138;2022-07-29T07:01:35;1.08;;;0.98;;
12181;SDS011;6154;51.550;12.138;2022-07-29T07:04:04;2.53;;;1.05;;
12181;SDS011;6154;51.550;12.138;2022-07-29T07:06:32;2.62;;;1.02;;
12181;SDS011;6154;51.550;12.138;2022-07-29T07:09:02;2.58;;;1.20;;
12181;SDS011;6154;51.550;12.138;2022-07-29T07:11:30;1.08;;;0.80;;
12181;SDS011;6154;51.550;12.138;2022-07-29T07:13:58;4.20;;;1.20;;
12181;SDS011;6154;51.550;12.138;2022-07-29T07:16:30;2.20;;;0.77;;
12181;SDS011;6154;51.550;12.138;2022-07-29T07:18:59;1.08;;;0.98;;
12181;SDS011;6154;51.550;12.138;2022-07-29T07:21:27;1.15;;;1.05;;
12181;SDS011;6154;51.550;12.138;2022-07-29T07:23:57;3.33;;;1.10;;
12181;SDS011;6154;51.550;12.138;2022-07-29T07:26:27;1.55;;;0.90;;
12181;SDS011;6154;51.550;12.138;2022-07-29T07:28:55;4.50;;;1.08;;
12181;SDS011;6154;51.550;12.138;2022-07-29T07:31:24;3.92;;;0.95;;
12181;SDS011;6154;51.550;12.138;2022-07-29T07:33:52;2.47;;;1.10;;
12181;SDS011;6154;51.550;12.138;2022-07-29T07:36:20;1.30;;;0.88;;
12181;SDS011;6154;51.550;12.138;2022-07-29T07:38:49;1.77;;;0.90;;
12181;SDS011;6154;51.550;12.138;2022-07-29T07:41:17;2.25;;;0.90;;
12181;SDS011;6154;51.550;12.138;2022-07-29T07:43:46;2.37;;;1.45;;
12181;SDS011;6154;51.550;12.138;2022-07-29T07:46:14;3.50;;;1.70;;
12181;SDS011;6154;51.550;12.138;2022-07-29T07:48:43;2.92;;;1.23;;
12181;SDS011;6154;51.550;12.138;2022-07-29T07:51:11;1.85;;;1.00;;
12181;SDS011;6154;51.550;12.138;2022-07-29T07:53:39;2.78;;;1.27;;
12181;SDS011;6154;51.550;12.138;2022-07-29T07:56:07;1.23;;;0.90;;
12181;SDS011;6154;51.550;12.138;2022-07-29T07:58:38;2.78;;;1.23;;
12181;SDS011;6154;51.550;12.138;2022-07-29T08:01:08;1.48;;;1.25;;
12181;SDS011;6154;51.550;12.138;2022-07-29T08:03:37;3.75;;;1.37;;
12181;SDS011;6154;51.550;12.138;2022-07-29T08:06:05;1.37;;;1.00;;
12181;SDS011;6154;51.550;12.138;2022-07-29T08:08:34;6.00;;;1.58;;
12181;SDS011;6154;51.550;12.138;2022-07-29T08:11:02;1.65;;;1.08;;
12181;SDS011;6154;51.550;12.138;2022-07-29T08:13:35;2.30;;;1.10;;
12181;SDS011;6154;51.550;12.138;2022-07-29T08:16:05;2.58;;;1.52;;
12181;SDS011;6154;51.550;12.138;2022-07-29T08:18:43;1.73;;;1.02;;
12181;SDS011;6154;51.550;12.138;2022-07-29T08:21:12;1.48;;;1.02;;
12181;SDS011;6154;51.550;12.138;2022-07-29T08:23:42;1.60;;;1.02;;
12181;SDS011;6154;51.550;12.138;2022-07-29T08:26:24;3.22;;;1.62;;
12181;SDS011;6154;51.550;12.138;2022-07-29T08:28:52;4.80;;;1.40;;
12181;SDS011;6154;51.550;12.138;2022-07-29T08:31:21;1.42;;;0.98;;
12181;SDS011;6154;51.550;12.138;2022-07-29T08:33:50;2.55;;;1.40;;
12181;SDS011;6154;51.550;12.138;2022-07-29T08:36:18;3.55;;;1.52;;
12181;SDS011;6154;51.550;12.138;2022-07-29T08:38:47;5.28;;;1.10;;
12181;SDS011;6154;51.550;12.138;2022-07-29T08:41:16;1.80;;;1.00;;
12181;SDS011;6154;51.550;12.138;2022-07-29T08:43:45;4.90;;;1.30;;
12181;SDS011;6154;51.550;12.138;2022-07-29T08:46:13;3.10;;;0.93;;
12181;SDS011;6154;51.550;12.138;2022-07-29T08:48:43;3.03;;;1.20;;
12181;SDS011;6154;51.550;12.138;2022-07-29T08:51:12;3.95;;;1.40;;
12181;SDS011;6154;51.550;12.138;2022-07-29T08:53:42;2.22;;;1.15;;
12181;SDS011;6154;51.550;12.138;2022-07-29T08:56:11;1.12;;;1.02;;
12181;SDS011;6154;51.550;12.138;2022-07-29T08:58:40;4.25;;;1.08;;
12181;SDS011;6154;51.550;12.138;2022-07-29T09:01:16;2.95;;;1.48;;
12181;SDS011;6154;51.550;12.138;2022-07-29T09:03:47;1.35;;;0.80;;
12181;SDS011;6154;51.550;12.138;2022-07-29T09:06:17;2.40;;;1.35;;
12181;SDS011;6154;51.550;12.138;2022-07-29T09:08:46;1.90;;;1.30;;
12181;SDS011;6154;51.550;12.138;2022-07-29T09:11:15;1.48;;;1.10;;
12181;SDS011;6154;51.550;12.138;2022-07-29T09:13:43;1.80;;;0.98;;
12181;SDS011;6154;51.550;12.138;2022-07-29T09:16:11;1.83;;;1.17;;
12181;SDS011;6154;51.550;12.138;2022-07-29T09:19:01;2.17;;;1.10;;
12181;SDS011;6154;51.550;12.138;2022-07-29T09:21:29;5.62;;;1.25;;
12181;SDS011;6154;51.550;12.138;2022-07-29T09:24:37;2.03;;;1.20;;
12181;SDS011;6154;51.550;12.138;2022-07-29T09:27:08;5.25;;;1.20;;
12181;SDS011;6154;51.550;12.138;2022-07-29T09:29:46;1.52;;;1.20;;
12181;SDS011;6154;51.550;12.138;2022-07-29T09:32:14;3.00;;;1.25;;
12181;SDS011;6154;51.550;12.138;2022-07-29T09:34:43;4.47;;;1.27;;
12181;SDS011;6154;51.550;12.138;2022-07-29T09:37:12;1.75;;;0.88;;
12181;SDS011;6154;51.550;12.138;2022-07-29T09:39:53;2.03;;;1.12;;
12181;SDS011;6154;51.550;12.138;2022-07-29T09:42:28;4.15;;;1.35;;
12181;SDS011;6154;51.550;12.138;2022-07-29T09:44:59;1.08;;;1.00;;
12181;SDS011;6154;51.550;12.138;2022-07-29T09:47:41;2.70;;;1.12;;
12181;SDS011;6154;51.550;12.138;2022-07-29T09:50:14;2.45;;;1.00;;
12181;SDS011;6154;51.550;12.138;2022-07-29T09:52:47;1.95;;;1.40;;
12181;SDS011;6154;51.550;12.138;2022-07-29T09:55:16;3.30;;;1.20;;
12181;SDS011;6154;51.550;12.138;2022-07-29T09:57:48;3.03;;;1.33;;
12181;SDS011;6154;51.550;12.138;2022-07-29T10:00:17;3.55;;;1.50;;
12181;SDS011;6154;51.550;12.138;2022-07-29T10:02:47;3.08;;;1.42;;
12181;SDS011;6154;51.550;12.138;2022-07-29T10:05:18;4.15;;;1.50;;
12181;SDS011;6154;51.550;12.138;2022-07-29T10:07:48;2.22;;;1.30;;
12181;SDS011;6154;51.550;12.138;2022-07-29T10:10:23;2.30;;;1.30;;
12181;SDS011;6154;51.550;12.138;2022-07-29T10:12:55;1.83;;;1.15;;
12181;SDS011;6154;51.550;12.138;2022-07-29T10:15:33;2.10;;;1.33;;
12181;SDS011;6154;51.550;12.138;2022-07-29T10:18:06;1.95;;;1.35;;
12181;SDS011;6154;51.550;12.138;2022-07-29T10:20:36;1.73;;;1.30;;
12181;SDS011;6154;51.550;12.138;2022-07-29T10:23:05;3.22;;;1.33;;
12181;SDS011;6154;51.550;12.138;2022-07-29T10:25:33;2.70;;;1.65;;
12181;SDS011;6154;51.550;12.138;2022-07-29T10:28:01;2.15;;;1.20;;
12181;SDS011;6154;51.550;12.138;2022-07-29T10:30:29;3.00;;;1.48;;
12181;SDS011;6154;51.550;12.138;2022-07-29T10:33:14;2.75;;;1.17;;
12181;SDS011;6154;51.550;12.138;2022-07-29T10:35:57;2.95;;;1.55;;
12181;SDS011;6154;51.550;12.138;2022-07-29T10:38:45;5.22;;;1.40;;
12181;SDS011;6154;51.550;12.138;2022-07-29T10:44:14;1.67;;;1.42;;
12181;SDS011;6154;51.550;12.138;2022-07-29T10:46:49;1.23;;;0.90;;
12181;SDS011;6154;51.550;12.138;2022-07-29T10:49:19;1.48;;;1.20;;
12181;SDS011;6154;51.550;12.138;2022-07-29T10:52:02;1.27;;;1.00;;
12181;SDS011;6154;51.550;12.138;2022-07-29T10:57:23;3.03;;;1.25;;
12181;SDS011;6154;51.550;12.138;2022-07-29T11:00:26;1.98;;;1.25;;
12181;SDS011;6154;51.550;12.138;2022-07-29T11:02:59;5.70;;;1.55;;
12181;SDS011;6154;51.550;12.138;2022-07-29T11:05:55;1.55;;;1.10;;
12181;SDS011;6154;51.550;12.138;2022-07-29T11:08:26;1.75;;;1.30;;
12181;SDS011;6154;51.550;12.138;2022-07-29T11:14:09;1.55;;;1.30;;
12181;SDS011;6154;51.550;12.138;2022-07-29T11:19:26;1.65;;;1.20;;
12181;SDS011;6154;51.550;12.138;2022-07-29T11:21:56;2.87;;;1.20;;
12181;SDS011;6154;51.550;12.138;2022-07-29T11:24:27;4.40;;;0.95;;
12181;SDS011;6154;51.550;12.138;2022-07-29T11:27:08;1.52;;;1.00;;
12181;SDS011;6154;51.550;12.138;2022-07-29T11:29:40;3.67;;;1.30;;
12181;SDS011;6154;51.550;12.138;2022-07-29T11:32:17;1.77;;;1.20;;
12181;SDS011;6154;51.550;12.138;2022-07-29T11:34:49;3.33;;;1.75;;
12181;SDS011;6154;51.550;12.138;2022-07-29T11:38:23;2.00;;;1.30;;
12181;SDS011;6154;51.550;12.138;2022-07-29T11:43:49;2.72;;;1.50;;
12181;SDS011;6154;51.550;12.138;2022-07-29T11:49:13;3.55;;;1.65;;
12181;SDS011;6154;51.550;12.138;2022-07-29T11:51:57;2.87;;;1.50;;
12181;SDS011;6154;51.550;12.138;2022-07-29T11:54:30;2.60;;;1.27;;
12181;SDS011;6154;51.550;12.138;2022-07-29T11:57:22;6.55;;;1.60;;
12181;SDS011;6154;51.550;12.138;2022-07-29T12:00:04;2.45;;;1.12;;
12181;SDS011;6154;51.550;12.138;2022-07-29T12:02:38;1.17;;;1.10;;
12181;SDS011;6154;51.550;12.138;2022-07-29T12:05:14;2.47;;;1.30;;
12181;SDS011;6154;51.550;12.138;2022-07-29T12:08:10;3.50;;;1.45;;
12181;SDS011;6154;51.550;12.138;2022-07-29T12:10:40;1.98;;;1.35;;
12181;SDS011;6154;51.550;12.138;2022-07-29T12:13:11;1.48;;;1.15;;
12181;SDS011;6154;51.550;12.138;2022-07-29T12:15:40;1.52;;;1.27;;
12181;SDS011;6154;51.550;12.138;2022-07-29T12:18:13;2.55;;;1.65;;
12181;SDS011;6154;51.550;12.138;2022-07-29T12:20:44;4.12;;;1.45;;
12181;SDS011;6154;51.550;12.138;2022-07-29T12:23:13;2.45;;;1.58;;
12181;SDS011;6154;51.550;12.138;2022-07-29T12:25:44;2.95;;;1.30;;
12181;SDS011;6154;51.550;12.138;2022-07-29T12:28:17;4.10;;;1.40;;
12181;SDS011;6154;51.550;12.138;2022-07-29T12:30:53;2.47;;;1.65;;
12181;SDS011;6154;51.550;12.138;2022-07-29T12:33:22;3.62;;;1.37;;
12181;SDS011;6154;51.550;12.138;2022-07-29T12:35:54;6.57;;;1.75;;
12181;SDS011;6154;51.550;12.138;2022-07-29T12:38:38;1.27;;;1.17;;
12181;SDS011;6154;51.550;12.138;2022-07-29T12:41:07;2.00;;;1.25;;
12181;SDS011;6154;51.550;12.138;2022-07-29T12:43:37;1.83;;;1.02;;
12181;SDS011;6154;51.550;12.138;2022-07-29T12:46:11;6.20;;;1.23;;
12181;SDS011;6154;51.550;12.138;2022-07-29T12:48:41;1.75;;;1.20;;
12181;SDS011;6154;51.550;12.138;2022-07-29T12:51:11;1.40;;;1.23;;
12181;SDS011;6154;51.550;12.138;2022-07-29T12:53:41;2.28;;;1.40;;
12181;SDS011;6154;51.550;12.138;2022-07-29T12:56:15;3.28;;;1.55;;
12181;SDS011;6154;51.550;12.138;2022-07-29T12:59:17;1.50;;;1.17;;
12181;SDS011;6154;51.550;12.138;2022-07-29T13:01:47;2.90;;;1.60;;
12181;SDS011;6154;51.550;12.138;2022-07-29T13:04:25;2.35;;;1.60;;
12181;SDS011;6154;51.550;12.138;2022-07-29T13:06:58;1.92;;;1.33;;
12181;SDS011;6154;51.550;12.138;2022-07-29T13:09:37;2.67;;;1.30;;
12181;SDS011;6154;51.550;12.138;2022-07-29T13:12:06;1.52;;;1.30;;
12181;SDS011;6154;51.550;12.138;2022-07-29T13:14:39;1.20;;;1.12;;
12181;SDS011;6154;51.550;12.138;2022-07-29T13:17:09;2.00;;;1.10;;
12181;SDS011;6154;51.550;12.138;2022-07-29T13:19:39;2.15;;;1.40;;
12181;SDS011;6154;51.550;12.138;2022-07-29T13:22:08;2.40;;;1.60;;
12181;SDS011;6154;51.550;12.138;2022-07-29T13:24:47;3.50;;;1.20;;
12181;SDS011;6154;51.550;12.138;2022-07-29T13:27:16;1.45;;;1.17;;
12181;SDS011;6154;51.550;12.138;2022-07-29T13:29:47;4.87;;;1.15;;
12181;SDS011;6154;51.550;12.138;2022-07-29T13:32:17;3.28;;;1.27;;
12181;SDS011;6154;51.550;12.138;2022-07-29T13:34:54;1.40;;;1.00;;
12181;SDS011;6154;51.550;12.138;2022-07-29T13:37:22;2.28;;;1.40;;
12181;SDS011;6154;51.550;12.138;2022-07-29T13:39:51;1.92;;;0.95;;
12181;SDS011;6154;51.550;12.138;2022-07-29T13:42:21;2.15;;;1.20;;
12181;SDS011;6154;51.550;12.138;2022-07-29T13:44:50;3.20;;;1.40;;
12181;SDS011;6154;51.550;12.138;2022-07-29T13:47:19;3.37;;;1.65;;
12181;SDS011;6154;51.550;12.138;2022-07-29T13:49:57;2.40;;;1.30;;
12181;SDS011;6154;51.550;12.138;2022-07-29T13:52:25;2.72;;;1.70;;
12181;SDS011;6154;51.550;12.138;2022-07-29T13:54:53;1.60;;;1.50;;
12181;SDS011;6154;51.550;12.138;2022-07-29T13:57:22;1.58;;;1.30;;
12181;SDS011;6154;51.550;12.138;2022-07-29T13:59:51;1.05;;;1.00;;
12181;SDS011;6154;51.550;12.138;2022-07-29T14:02:20;1.73;;;1.30;;
12181;SDS011;6154;51.550;12.138;2022-07-29T14:04:52;2.15;;;1.25;;
12181;SDS011;6154;51.550;12.138;2022-07-29T14:07:20;1.67;;;1.05;;
12181;SDS011;6154;51.550;12.138;2022-07-29T14:09:48;2.35;;;1.33;;
12181;SDS011;6154;51.550;12.138;2022-07-29T14:12:17;2.03;;;1.40;;
12181;SDS011;6154;51.550;12.138;2022-07-29T14:14:45;2.85;;;1.42;;
12181;SDS011;6154;51.550;12.138;2022-07-29T14:17:14;2.22;;;1.35;;
12181;SDS011;6154;51.550;12.138;2022-07-29T14:19:43;2.03;;;1.20;;
12181;SDS011;6154;51.550;12.138;2022-07-29T14:22:11;3.08;;;1.80;;
12181;SDS011;6154;51.550;12.138;2022-07-29T14:24:40;1.35;;;1.10;;
12181;SDS011;6154;51.550;12.138;2022-07-29T14:27:09;1.50;;;1.33;;
12181;SDS011;6154;51.550;12.138;2022-07-29T14:29:37;1.20;;;1.10;;
12181;SDS011;6154;51.550;12.138;2022-07-29T14:32:05;3.35;;;1.17;;
12181;SDS011;6154;51.550;12.138;2022-07-29T14:34:36;4.45;;;1.60;;
12181;SDS011;6154;51.550;12.138;2022-07-29T14:37:04;2.53;;;1.20;;
12181;SDS011;6154;51.550;12.138;2022-07-29T14:39:33;2.33;;;1.30;;
12181;SDS011;6154;51.550;12.138;2022-07-29T14:42:08;4.43;;;1.30;;
12181;SDS011;6154;51.550;12.138;2022-07-29T14:44:38;9.73;;;1.37;;
12181;SDS011;6154;51.550;12.138;2022-07-29T14:47:08;1.95;;;1.12;;
12181;SDS011;6154;51.550;12.138;2022-07-29T14:49:40;1.48;;;1.20;;
12181;SDS011;6154;51.550;12.138;2022-07-29T14:52:08;1.98;;;1.10;;
12181;SDS011;6154;51.550;12.138;2022-07-29T14:54:36;5.32;;;1.80;;
12181;SDS011;6154;51.550;12.138;2022-07-29T14:57:04;3.33;;;1.12;;
12181;SDS011;6154;51.550;12.138;2022-07-29T14:59:32;2.10;;;1.17;;
12181;SDS011;6154;51.550;12.138;2022-07-29T15:02:00;3.33;;;2.05;;
12181;SDS011;6154;51.550;12.138;2022-07-29T15:04:29;1.50;;;1.25;;
12181;SDS011;6154;51.550;12.138;2022-07-29T15:06:59;2.03;;;1.10;;
12181;SDS011;6154;51.550;12.138;2022-07-29T15:09:27;3.65;;;1.45;;
12181;SDS011;6154;51.550;12.138;2022-07-29T15:11:55;1.48;;;1.37;;
12181;SDS011;6154;51.550;12.138;2022-07-29T15:14:24;1.75;;;1.05;;
12181;SDS011;6154;51.550;12.138;2022-07-29T15:16:52;2.53;;;1.20;;
12181;SDS011;6154;51.550;12.138;2022-07-29T15:19:20;1.55;;;1.40;;
12181;SDS011;6154;51.550;12.138;2022-07-29T15:21:48;1.95;;;1.10;;
12181;SDS011;6154;51.550;12.138;2022-07-29T15:24:17;2.78;;;1.10;;
12181;SDS011;6154;51.550;12.138;2022-07-29T15:26:46;1.62;;;1.00;;
12181;SDS011;6154;51.550;12.138;2022-07-29T15:29:14;1.92;;;1.08;;
12181;SDS011;6154;51.550;12.138;2022-07-29T15:31:42;3.33;;;1.10;;